Date,TemperatureHighF,TemperatureAvgF,TemperatureLowF,DewpointHighF,DewpointAvgF,DewpointLowF,HumidityHigh,HumidityAvg,HumidityLow,PressureMaxIn,PressureMinIn,WindSpeedMaxMPH,WindSpeedAvgMPH,GustSpeedMaxMPH,PrecipitationSumIn
2013-3-1,32.0,29.1,25.0,25.0,20.6,17.0,82,70,59,0.00,40.00,9,7,0,0.00
2013-3-2,28.0,24.4,20.0,17.0,15.1,12.0,76,67,57,0.00,40.00,8,5,0,0.00
2013-3-3,29.0,23.5,17.0,17.0,13.3,11.0,81,65,46,0.00,40.00,10,5,0,0.00
2013-3-4,32.0,24.2,15.0,16.0,13.8,12.0,88,65,43,0.00,40.00,5,3,0,0.00
2013-3-5,29.0,28.1,26.0,26.0,20.8,16.0,93,74,58,0.00,40.00,13,9,0,0.00
2013-3-6,35.0,29.9,25.0,27.0,24.0,21.0,91,78,63,0.00,40.00,11,6,0,0.09
2013-3-7,35.0,31.9,26.0,29.0,24.0,19.0,90,73,52,0.00,40.00,7,4,0,0.00
2013-3-8,40.0,29.4,21.0,20.0,18.7,17.0,90,66,41,0.00,40.00,5,3,0,0.00
2013-3-9,41.0,33.9,27.0,30.0,23.8,18.0,74,66,53,0.00,40.00,12,7,0,0.00
2013-3-10,54.0,48.1,40.0,40.0,35.7,30.0,80,62,51,0.00,40.00,13,8,0,0.12
2013-3-11,53.0,44.4,33.0,46.0,39.1,30.0,92,83,53,0.00,40.00,12,8,0,0.07
2013-3-12,33.0,31.2,29.0,29.0,25.4,21.0,92,80,59,0.00,40.00,10,8,0,0.00
2013-3-13,28.0,25.3,22.0,26.0,18.4,11.0,91,76,54,0.00,40.00,13,8,0,0.00
2013-3-14,38.0,27.2,19.0,21.0,14.7,11.0,77,60,41,0.00,40.00,7,3,0,0.03
2013-3-15,44.0,34.8,29.0,34.0,29.6,24.0,93,81,61,0.00,40.00,7,5,0,0.03
2013-3-16,36.0,31.9,27.0,34.0,28.3,20.0,94,86,69,0.00,40.00,11,7,0,0.00
2013-3-17,33.0,28.7,25.0,21.0,17.3,15.0,73,62,47,0.00,40.00,10,7,0,0.00
2013-3-18,33.0,28.9,26.0,31.0,24.5,17.0,93,84,69,0.00,40.00,13,9,0,0.03
2013-3-19,30.0,24.4,18.0,22.0,14.3,12.0,84,66,46,0.00,40.00,13,10,0,0.00
2013-3-20,28.0,21.4,16.0,14.0,11.7,9.0,88,66,56,0.00,40.00,9,8,0,0.00
2013-3-21,26.0,20.8,14.0,19.0,15.2,12.0,90,79,63,0.00,40.00,9,5,0,0.00
2013-3-22,36.0,27.3,18.0,20.0,16.5,14.0,84,65,43,0.00,40.00,8,4,0,0.02
2013-3-23,34.0,27.5,22.0,21.0,19.3,18.0,87,71,54,0.00,40.00,8,4,0,0.00
2013-3-24,36.0,29.9,24.0,23.0,21.3,20.0,83,71,54,0.00,40.00,18,10,0,0.00
2013-3-25,35.0,31.8,29.0,28.0,23.4,21.0,78,70,59,0.00,40.00,12,9,0,0.00
2013-3-26,38.0,33.0,30.0,27.0,26.1,24.0,86,75,56,0.00,40.00,10,7,0,0.00
2013-3-27,41.0,35.4,30.0,30.0,21.3,14.0,92,61,33,0.00,40.00,12,6,0,0.00
2013-3-28,47.0,36.3,27.0,26.0,19.9,16.0,79,54,31,0.00,40.00,8,4,0,0.00
2013-3-29,49.0,39.3,29.0,21.0,16.3,13.0,70,41,23,0.00,40.00,8,3,0,0.00
2013-3-30,55.0,41.6,28.0,30.0,18.8,-99.9,66,45,29,0.00,40.00,8,4,0,0.00
2013-3-31,54.0,47.3,39.0,39.0,33.2,27.0,88,59,41,0.00,40.00,14,8,0,0.03